Riddle, Oregon
Current Conditions -  °F | °C
As of 2:53 PM on Wednesday 22 Oct 2014 (Local Time) from KRBG Reporting Station
Overcast Overcast  
Wind Chill: 68°   Ceiling: 4600
Heat Index: 68°   Visibility: 10mi
Dew Point: 50°   Wind: 12mph
Humidity: 52%   Direction: 170°S
Pressure: 29.77"   Gusts: NA
Location:  42.95°N, 123.36°W
Report Text: KRBG 222153Z AUTO 17010KT 10SM OVC046 20/10 A2977 RMK AO2 RAE2059 SLP081 P0000 T02000100
Loading
Personal Weather Stations






























Interactive Weather Map
Tropical Storm Tracking
New forecast layout! Learn more

10-Day Weather Forecast

Advertisements
Track Severe Weather on mobile